Time;durP1;ratioP1;P1;durP2;ratioP2;P2;SDS_P1;SDS_P2;PMS_P1;PMS_P2;Temp;Humidity;BMP_temperature;BMP_pressure;BME280_temperature;BME280_humidity;BME280_pressure;Samples;Min_cycle;Max_cycle;Signal;HPM_P1;HPM_P2
2021/01/16 00:02:27;;;;;;;3.15;1.30;;;18.50;67.50;;;;;;4973532;28;20049;-41
2021/01/16 00:04:59;;;;;;;6.50;1.77;;;18.50;67.50;;;;;;4981746;28;20076;-42
2021/01/16 00:07:31;;;;;;;1.90;1.10;;;18.50;67.50;;;;;;4966640;28;20053;-42
2021/01/16 00:10:03;;;;;;;;;;;18.50;67.60;;;;;;4986406;28;20473;-42
2021/01/16 00:12:35;;;;;;;5.18;1.23;;;18.50;67.50;;;;;;4985064;28;19925;-41
2021/01/16 00:15:08;;;;;;;2.72;1.35;;;18.50;67.70;;;;;;4984673;28;20053;-42
2021/01/16 00:17:40;;;;;;;2.22;1.08;;;18.40;67.60;;;;;;4969252;28;20288;-41
2021/01/16 00:20:13;;;;;;;6.10;1.33;;;18.40;67.70;;;;;;4984327;28;20046;-44
2021/01/16 00:22:49;;;;;;;7.13;1.98;;;18.40;67.80;;;;;;4963649;28;20046;-42
2021/01/16 00:25:21;;;;;;;4.13;1.63;;;18.40;67.80;;;;;;4942672;28;20145;-41
2021/01/16 00:27:54;;;;;;;3.28;1.15;;;18.50;67.90;;;;;;4979691;28;20153;-40
2021/01/16 00:30:28;;;;;;;3.50;1.33;;;18.40;67.90;;;;;;4979918;28;20532;-47
2021/01/16 00:32:59;;;;;;;2.83;1.20;;;18.50;67.90;;;;;;4985525;28;20543;-41
2021/01/16 00:35:32;;;;;;;5.13;1.45;;;18.50;67.90;;;;;;4985020;28;20398;-40
2021/01/16 00:38:05;;;;;;;4.75;1.88;;;18.50;67.90;;;;;;4989000;28;20559;-41
2021/01/16 00:40:37;;;;;;;5.45;1.73;;;18.50;67.90;;;;;;4982940;28;20152;-40
2021/01/16 00:43:14;;;;;;;7.55;1.88;;;18.50;67.90;;;;;;4981372;28;20050;-41
2021/01/16 00:45:47;;;;;;;2.03;1.27;;;18.50;67.80;;;;;;4972720;28;20062;-41
2021/01/16 00:48:24;;;;;;;5.80;1.73;;;18.50;67.60;;;;;;4961323;28;20136;-42
2021/01/16 00:51:00;;;;;;;5.55;1.50;;;18.50;67.70;;;;;;4973012;28;20066;-42
2021/01/16 00:53:40;;;;;;;5.20;1.63;;;18.40;67.70;;;;;;4969327;28;20165;-43
2021/01/16 00:56:17;;;;;;;3.95;1.30;;;18.40;67.70;;;;;;4985264;28;20726;-42
2021/01/16 00:59:03;;;;;;;1.63;1.13;;;18.30;67.80;;;;;;4981831;28;20043;-41
2021/01/16 01:01:43;;;;;;;3.78;1.50;;;18.40;67.80;;;;;;4979648;28;20050;-41
2021/01/16 01:04:15;;;;;;;3.35;1.48;;;18.30;67.80;;;;;;4980452;28;20052;-41
2021/01/16 01:06:47;;;;;;;4.43;1.33;;;18.30;67.70;;;;;;4982563;28;20295;-41
2021/01/16 01:09:16;;;;;;;5.60;1.40;;;18.30;67.90;;;;;;4978810;28;20045;-41
2021/01/16 01:11:46;;;;;;;3.35;1.42;;;18.30;67.90;;;;;;4976680;28;20053;-43
2021/01/16 01:14:15;;;;;;;4.93;1.67;;;18.30;68.10;;;;;;4983056;28;20570;-41
2021/01/16 01:16:45;;;;;;;3.45;1.13;;;18.30;68.10;;;;;;4979659;28;20069;-42
2021/01/16 01:19:17;;;;;;;6.22;1.60;;;18.30;68.10;;;;;;4985095;28;20046;-41
2021/01/16 01:21:48;;;;;;;3.45;1.40;;;18.30;68.20;;;;;;4983344;28;20561;-42
2021/01/16 01:24:21;;;;;;;5.07;1.95;;;18.30;68.10;;;;;;4988727;28;20050;-41
2021/01/16 01:26:52;;;;;;;3.55;1.73;;;18.30;68.20;;;;;;4982282;28;20046;-41
2021/01/16 01:29:24;;;;;;;2.97;1.48;;;18.30;68.30;;;;;;4983090;28;20046;-42
2021/01/16 01:31:58;;;;;;;3.47;1.60;;;18.30;68.30;;;;;;4971674;28;20552;-42
2021/01/16 01:34:28;;;;;;;2.95;1.30;;;18.30;68.20;;;;;;4982108;28;20591;-41
2021/01/16 01:37:01;;;;;;;5.53;1.60;;;18.30;68.30;;;;;;4983235;28;20507;-43
2021/01/16 01:39:32;;;;;;;;;;;18.30;68.20;;;;;;4990047;28;20038;-42
2021/01/16 01:42:04;;;;;;;4.15;1.70;;;18.30;68.40;;;;;;4986574;28;19926;-41
2021/01/16 01:44:34;;;;;;;3.22;1.30;;;18.30;68.40;;;;;;4970969;28;20047;-44
2021/01/16 01:47:03;;;;;;;4.95;1.58;;;18.30;68.30;;;;;;4982099;28;20149;-41
2021/01/16 01:49:34;;;;;;;4.28;1.30;;;18.30;68.50;;;;;;4977222;28;20057;-44
2021/01/16 01:52:04;;;;;;;4.10;1.83;;;18.30;68.50;;;;;;4980915;28;20125;-41
2021/01/16 01:54:36;;;;;;;7.35;1.88;;;18.30;68.50;;;;;;4981314;28;20057;-42
2021/01/16 01:57:14;;;;;;;7.63;1.80;;;18.30;68.50;;;;;;4980895;28;20045;-41
2021/01/16 01:59:45;;;;;;;4.05;1.30;;;18.30;68.60;;;;;;4988106;28;20054;-41
2021/01/16 02:02:21;;;;;;;6.10;1.65;;;18.30;68.50;;;;;;4983416;28;20081;-42
2021/01/16 02:04:51;;;;;;;5.15;1.35;;;18.30;68.70;;;;;;4991601;28;20105;-41
2021/01/16 02:07:39;;;;;;;5.53;1.77;;;18.30;68.70;;;;;;4988296;28;20042;-41
2021/01/16 02:10:22;;;;;;;2.72;1.40;;;18.30;68.70;;;;;;4987936;28;20693;-40
2021/01/16 02:12:54;;;;;;;6.40;1.52;;;18.30;68.80;;;;;;4986265;28;20061;-41
2021/01/16 02:15:33;;;;;;;1.75;1.25;;;18.30;68.70;;;;;;4977452;28;20041;-41
2021/01/16 02:18:25;;;;;;;6.78;2.15;;;18.30;68.70;;;;;;4977996;28;20133;-41
2021/01/16 02:20:57;;;;;;;3.45;1.67;;;18.30;68.80;;;;;;4985097;28;20520;-41
2021/01/16 02:23:31;;;;;;;7.97;2.47;;;18.30;68.70;;;;;;4985471;28;20497;-40
2021/01/16 02:26:13;;;;;;;5.30;2.30;;;18.40;68.90;;;;;;4987829;28;20105;-41
2021/01/16 02:28:49;;;;;;;4.68;1.85;;;18.40;69.00;;;;;;4986437;28;20085;-41
2021/01/16 02:31:20;;;;;;;4.97;2.65;;;18.40;68.90;;;;;;4987454;28;20058;-41
2021/01/16 02:33:52;;;;;;;3.55;2.17;;;18.40;68.90;;;;;;4984278;28;20752;-41
2021/01/16 02:37:01;;;;;;;4.53;1.98;;;18.40;68.70;;;;;;4984152;28;20636;-41
2021/01/16 02:40:01;;;;;;;5.78;2.08;;;18.40;68.80;;;;;;4977480;28;20049;-41
2021/01/16 02:42:43;;;;;;;2.65;1.80;;;18.40;68.80;;;;;;4978743;28;20061;-40
2021/01/16 02:45:17;;;;;;;4.77;1.97;;;18.40;68.80;;;;;;4986271;28;20031;-40
2021/01/16 02:48:08;;;;;;;5.20;2.30;;;18.40;68.80;;;;;;4989044;28;20062;-40
2021/01/16 02:50:43;;;;;;;;;;;18.40;68.90;;;;;;4987732;28;20039;-40
2021/01/16 02:53:14;;;;;;;5.82;1.98;;;18.40;68.80;;;;;;4988718;28;19926;-42
2021/01/16 02:55:49;;;;;;;4.38;2.00;;;18.50;69.50;;;;;;4987563;28;20303;-40
2021/01/16 02:58:21;;;;;;;2.95;1.88;;;18.50;68.70;;;;;;4990829;28;20041;-40
2021/01/16 03:00:53;;;;;;;4.57;1.98;;;18.50;68.90;;;;;;4976740;28;20249;-41
2021/01/16 03:03:24;;;;;;;5.25;2.22;;;18.50;68.80;;;;;;4985130;28;20042;-41
2021/01/16 03:05:55;;;;;;;3.75;2.35;;;18.50;68.90;;;;;;4983594;28;20205;-40
2021/01/16 03:08:28;;;;;;;3.45;1.90;;;18.50;68.90;;;;;;4990983;28;20049;-42
2021/01/16 03:11:00;;;;;;;3.72;1.73;;;18.50;68.90;;;;;;4988902;28;20130;-41
2021/01/16 03:13:31;;;;;;;4.28;1.90;;;18.50;69.00;;;;;;4987100;28;20125;-40
2021/01/16 03:16:07;;;;;;;2.97;2.05;;;18.50;68.90;;;;;;4982085;28;20544;-41
2021/01/16 03:18:44;;;;;;;2.58;1.60;;;18.60;68.80;;;;;;4987347;28;20038;-40
2021/01/16 03:21:15;;;;;;;4.97;2.08;;;18.60;68.90;;;;;;4981484;28;20080;-42
2021/01/16 03:23:46;;;;;;;6.18;2.38;;;18.60;68.90;;;;;;4979289;28;20355;-41
2021/01/16 03:26:15;;;;;;;5.22;1.98;;;18.60;69.00;;;;;;4977755;28;20075;-34
2021/01/16 03:28:45;;;;;;;5.88;2.30;;;18.60;68.90;;;;;;4984969;28;20046;-34
2021/01/16 03:31:15;;;;;;;5.43;2.03;;;18.60;68.90;;;;;;4981845;28;20066;-34
2021/01/16 03:33:48;;;;;;;3.53;2.15;;;18.60;69.00;;;;;;4986638;28;20129;-34
2021/01/16 03:36:19;;;;;;;8.18;2.10;;;18.60;68.90;;;;;;4986055;28;20054;-34
2021/01/16 03:38:50;;;;;;;5.32;2.28;;;18.60;68.90;;;;;;4989115;28;20112;-34
2021/01/16 03:41:23;;;;;;;3.25;1.95;;;18.60;69.00;;;;;;4984156;28;20046;-35
2021/01/16 03:43:54;;;;;;;4.43;2.28;;;18.60;69.10;;;;;;4981538;28;20042;-34
2021/01/16 03:46:25;;;;;;;4.40;2.38;;;18.70;69.20;;;;;;4972333;28;20057;-34
2021/01/16 03:48:55;;;;;;;5.30;2.53;;;18.70;69.20;;;;;;4981274;28;20052;-34
2021/01/16 03:51:25;;;;;;;3.13;2.05;;;18.70;69.10;;;;;;4983898;28;20041;-43
2021/01/16 03:53:54;;;;;;;4.30;2.40;;;18.60;69.10;;;;;;4989269;28;20046;-46
2021/01/16 03:56:27;;;;;;;6.10;2.65;;;18.60;69.00;;;;;;4985524;28;20104;-46
2021/01/16 03:58:58;;;;;;;;;;;18.70;68.90;;;;;;4989219;28;20042;-46
2021/01/16 04:01:31;;;;;;;4.47;2.03;;;18.70;69.10;;;;;;4980763;28;21252;-44
2021/01/16 04:04:02;;;;;;;6.18;2.75;;;18.70;69.20;;;;;;4991115;28;20442;-46
2021/01/16 04:06:34;;;;;;;4.40;2.20;;;18.70;69.30;;;;;;4973358;28;20769;-43
2021/01/16 04:09:04;;;;;;;3.28;1.92;;;18.70;69.40;;;;;;4980406;28;20060;-44
2021/01/16 04:11:35;;;;;;;3.92;2.10;;;18.70;69.90;;;;;;4961855;28;20380;-44
2021/01/16 04:14:05;;;;;;;3.92;2.45;;;18.70;69.30;;;;;;4983547;28;20486;-44
2021/01/16 04:16:36;;;;;;;4.47;2.13;;;18.70;69.30;;;;;;4965035;28;20082;-43
2021/01/16 04:19:08;;;;;;;5.55;2.33;;;18.70;69.30;;;;;;4983504;28;20429;-43
2021/01/16 04:21:39;;;;;;;7.22;2.72;;;18.80;69.30;;;;;;4985770;28;20038;-43
2021/01/16 04:24:10;;;;;;;4.68;1.73;;;18.80;69.40;;;;;;4986443;28;20114;-44
2021/01/16 04:26:40;;;;;;;7.05;2.10;;;18.80;69.50;;;;;;4987276;28;20046;-44
2021/01/16 04:29:13;;;;;;;4.22;2.08;;;18.90;69.50;;;;;;4978828;28;20046;-43
2021/01/16 04:31:43;;;;;;;5.18;2.22;;;18.90;69.60;;;;;;4978216;28;20050;-44
2021/01/16 04:34:13;;;;;;;2.20;2.00;;;19.00;69.60;;;;;;4978075;28;20124;-45
2021/01/16 04:36:45;;;;;;;4.03;1.70;;;19.00;69.70;;;;;;4995483;28;20068;-38
2021/01/16 04:39:17;;;;;;;7.18;1.95;;;19.10;69.70;;;;;;4988096;28;20045;-35
2021/01/16 04:41:53;;;;;;;4.55;2.50;;;19.10;69.80;;;;;;4996598;28;20061;-45
2021/01/16 04:44:23;;;;;;;4.13;2.67;;;19.20;69.60;;;;;;4989394;28;20442;-45
2021/01/16 04:46:57;;;;;;;4.72;2.22;;;19.20;69.30;;;;;;4989642;28;20089;-46
2021/01/16 04:49:31;;;;;;;3.13;1.85;;;19.20;69.30;;;;;;4986475;28;20073;-46
2021/01/16 04:52:04;;;;;;;4.93;1.95;;;19.20;69.30;;;;;;4978902;28;20148;-46
2021/01/16 04:54:36;;;;;;;3.63;2.15;;;19.10;69.10;;;;;;4977557;28;20789;-46
2021/01/16 04:57:12;;;;;;;5.20;2.22;;;19.10;69.20;;;;;;4984346;28;20497;-46
2021/01/16 04:59:42;;;;;;;5.10;2.28;;;19.10;69.10;;;;;;4985256;28;20050;-46
2021/01/16 05:02:17;;;;;;;3.85;2.70;;;19.10;69.20;;;;;;4981970;28;20128;-46
2021/01/16 05:04:50;;;;;;;4.55;1.80;;;19.10;69.30;;;;;;4984330;28;20547;-46
2021/01/16 05:07:21;;;;;;;4.20;1.70;;;19.10;69.40;;;;;;4985748;28;20505;-46
2021/01/16 05:09:55;;;;;;;3.00;1.90;;;19.10;69.30;;;;;;4982615;28;20108;-46
2021/01/16 05:12:55;;;;;;;6.50;1.90;;;19.10;69.20;;;;;;4987208;28;20048;-46
2021/01/16 05:15:31;;;;;;;2.78;1.88;;;19.10;69.20;;;;;;4969171;28;20050;-46
2021/01/16 05:18:11;;;;;;;2.83;1.75;;;19.10;69.30;;;;;;4985201;28;20050;-46
2021/01/16 05:20:44;;;;;;;2.13;1.98;;;19.20;69.20;;;;;;4985459;28;20042;-46
2021/01/16 05:23:16;;;;;;;3.83;2.00;;;19.20;69.30;;;;;;4982334;28;20061;-46
2021/01/16 05:25:53;;;;;;;2.13;1.70;;;19.20;69.20;;;;;;4986920;28;20404;-46
2021/01/16 05:28:26;;;;;;;3.47;2.10;;;19.20;69.30;;;;;;4989805;28;20056;-46
2021/01/16 05:31:02;;;;;;;3.20;2.22;;;19.20;69.30;;;;;;4982848;28;20050;-46
2021/01/16 05:33:40;;;;;;;3.28;1.88;;;19.20;69.20;;;;;;4989629;28;20141;-46
2021/01/16 05:36:13;;;;;;;1.58;1.40;;;19.30;69.30;;;;;;4981680;28;20050;-46
2021/01/16 05:38:46;;;;;;;3.83;2.20;;;19.30;69.20;;;;;;4982069;28;20125;-46
2021/01/16 05:41:23;;;;;;;2.22;2.00;;;19.30;69.20;;;;;;4984905;28;20791;-46
2021/01/16 05:43:53;;;;;;;4.28;2.00;;;19.30;69.10;;;;;;4988307;28;20433;-46
2021/01/16 05:46:30;;;;;;;3.55;2.00;;;19.30;69.20;;;;;;4982999;28;20062;-46
2021/01/16 05:49:02;;;;;;;5.68;2.40;;;19.30;69.00;;;;;;4947133;28;20489;-46
2021/01/16 05:51:38;;;;;;;4.13;1.80;;;19.30;69.10;;;;;;4986787;28;20046;-45
2021/01/16 05:54:09;;;;;;;3.80;1.83;;;19.40;69.20;;;;;;4987066;28;20043;-43
2021/01/16 05:56:43;;;;;;;3.08;1.70;;;19.40;69.30;;;;;;4984432;28;20038;-45
2021/01/16 05:59:20;;;;;;;2.35;2.15;;;19.50;69.50;;;;;;4982875;28;20049;-45
2021/01/16 06:01:59;;;;;;;5.07;1.80;;;19.60;69.50;;;;;;4976279;28;20081;-44
2021/01/16 06:04:35;;;;;;;3.90;2.20;;;19.70;69.40;;;;;;4985503;28;20410;-46
2021/01/16 06:07:08;;;;;;;3.17;2.13;;;19.70;69.20;;;;;;4985801;28;20050;-45
2021/01/16 06:09:39;;;;;;;3.70;2.10;;;19.70;69.10;;;;;;4984867;28;20045;-46
2021/01/16 06:12:14;;;;;;;3.60;2.15;;;19.80;69.10;;;;;;4985487;28;20085;-46
2021/01/16 06:14:45;;;;;;;2.28;1.98;;;19.80;69.10;;;;;;4972541;28;20042;-45
2021/01/16 06:17:17;;;;;;;3.35;2.22;;;19.90;69.10;;;;;;4981285;28;20169;-45
2021/01/16 06:19:50;;;;;;;2.88;2.33;;;19.90;68.90;;;;;;4983589;28;20042;-46
2021/01/16 06:22:20;;;;;;;3.47;2.17;;;19.90;68.80;;;;;;4977275;28;20042;-46
2021/01/16 06:24:51;;;;;;;3.60;1.85;;;20.00;68.70;;;;;;4980376;28;20069;-46
2021/01/16 06:27:25;;;;;;;3.75;2.15;;;20.00;68.70;;;;;;4981398;28;20128;-46
2021/01/16 06:30:01;;;;;;;2.90;2.35;;;20.00;68.60;;;;;;4988181;28;20046;-46
2021/01/16 06:32:33;;;;;;;8.73;3.03;;;20.00;68.60;;;;;;4965500;28;20054;-46
2021/01/16 06:35:11;;;;;;;5.95;2.72;;;20.00;68.60;;;;;;4987234;28;20455;-46
2021/01/16 06:37:45;;;;;;;8.45;2.35;;;20.00;68.40;;;;;;4989595;28;20050;-46
2021/01/16 06:40:29;;;;;;;4.93;2.25;;;20.00;68.50;;;;;;5007228;28;20049;-46
2021/01/16 06:43:05;;;;;;;6.07;2.05;;;20.00;68.40;;;;;;5000225;28;20569;-46
2021/01/16 06:45:35;;;;;;;7.47;2.65;;;20.00;68.70;;;;;;4999630;28;20069;-46
2021/01/16 06:48:09;;;;;;;5.10;2.78;;;20.00;68.60;;;;;;5004536;28;20128;-46
2021/01/16 06:50:40;;;;;;;4.72;2.60;;;20.00;68.60;;;;;;5007247;28;20054;-46
2021/01/16 06:53:31;;;;;;;5.13;2.70;;;20.00;68.60;;;;;;5013520;28;20045;-46
2021/01/16 06:56:10;;;;;;;3.70;2.38;;;19.90;68.60;;;;;;5009280;28;20069;-47
2021/01/16 06:58:45;;;;;;;7.07;2.08;;;19.90;68.70;;;;;;5008362;28;20083;-47
2021/01/16 07:01:17;;;;;;;5.45;2.40;;;20.00;68.70;;;;;;5002937;28;20072;-47
2021/01/16 07:03:49;;;;;;;6.32;2.65;;;19.90;68.70;;;;;;5003568;28;20124;-47
2021/01/16 07:06:21;;;;;;;4.85;2.70;;;19.90;68.70;;;;;;5020242;28;20037;-47
2021/01/16 07:08:52;;;;;;;;;;;19.90;68.80;;;;;;5012520;28;20065;-45
2021/01/16 07:11:24;;;;;;;3.88;2.13;;;20.00;68.70;;;;;;5006199;28;19931;-45
2021/01/16 07:13:55;;;;;;;6.43;2.05;;;19.90;68.70;;;;;;5004035;28;20124;-45
2021/01/16 07:16:26;;;;;;;5.03;2.47;;;19.90;68.70;;;;;;5008891;28;20586;-45
2021/01/16 07:18:58;;;;;;;3.17;2.08;;;19.90;68.70;;;;;;5010464;28;20046;-45
2021/01/16 07:21:29;;;;;;;5.45;2.10;;;19.90;68.80;;;;;;5002974;28;20473;-45
2021/01/16 07:23:59;;;;;;;4.65;2.38;;;19.90;68.80;;;;;;5009232;28;20033;-45
2021/01/16 07:26:28;;;;;;;4.65;2.47;;;19.90;68.70;;;;;;5003387;28;20042;-45
2021/01/16 07:28:59;;;;;;;1.90;1.75;;;19.90;68.80;;;;;;4987957;28;20073;-45
2021/01/16 07:31:34;;;;;;;6.40;2.15;;;19.90;68.70;;;;;;5001293;28;20091;-45
2021/01/16 07:34:07;;;;;;;3.65;1.70;;;19.90;68.70;;;;;;5005130;28;20049;-45
2021/01/16 07:36:37;;;;;;;2.88;1.98;;;19.90;68.70;;;;;;5007252;28;20481;-45
2021/01/16 07:39:14;;;;;;;2.70;1.60;;;19.90;68.80;;;;;;5013257;28;20037;-45
2021/01/16 07:41:49;;;;;;;4.53;1.95;;;19.90;68.80;;;;;;5010844;28;20052;-45
2021/01/16 07:44:24;;;;;;;2.92;1.92;;;19.90;68.80;;;;;;5009157;28;20512;-45
2021/01/16 07:47:00;;;;;;;3.15;1.80;;;19.90;68.90;;;;;;4997700;28;20468;-45
2021/01/16 07:49:40;;;;;;;2.35;1.85;;;19.80;68.90;;;;;;5009050;28;20461;-44
2021/01/16 07:52:17;;;;;;;9.10;2.28;;;19.80;68.80;;;;;;5009505;28;20800;-45
2021/01/16 07:55:08;;;;;;;4.03;2.15;;;19.80;68.90;;;;;;5006692;28;20092;-47
2021/01/16 07:57:48;;;;;;;3.25;1.98;;;19.80;68.90;;;;;;5001441;28;20041;-47
2021/01/16 08:00:22;;;;;;;3.67;2.17;;;19.80;68.90;;;;;;5001709;28;20045;-46
2021/01/16 08:03:19;;;;;;;3.95;1.65;;;19.80;69.00;;;;;;5008012;28;20078;-45
2021/01/16 08:06:03;;;;;;;2.50;1.70;;;19.80;69.10;;;;;;5004106;28;20061;-48
2021/01/16 08:08:40;;;;;;;6.22;1.85;;;19.80;69.00;;;;;;5005876;28;20038;-45
2021/01/16 08:11:13;;;;;;;3.33;1.88;;;19.80;69.00;;;;;;5012484;28;20056;-47
2021/01/16 08:13:48;;;;;;;3.13;1.67;;;19.80;69.20;;;;;;5014996;28;20049;-48
2021/01/16 08:16:18;;;;;;;4.75;1.70;;;19.80;69.10;;;;;;5009749;28;20060;-45
2021/01/16 08:18:53;;;;;;;2.78;1.67;;;19.80;69.20;;;;;;5015596;28;20128;-45
2021/01/16 08:21:23;;;;;;;5.65;1.88;;;19.70;69.20;;;;;;5002705;28;20052;-45
2021/01/16 08:24:03;;;;;;;5.32;1.63;;;19.70;69.20;;;;;;5009977;28;20766;-45
2021/01/16 08:26:35;;;;;;;3.47;1.60;;;19.70;69.20;;;;;;5017795;28;20430;-45
2021/01/16 08:29:06;;;;;;;2.78;1.50;;;19.70;69.30;;;;;;5012282;28;20049;-44
2021/01/16 08:31:38;;;;;;;3.72;1.90;;;19.70;69.20;;;;;;5009728;28;20050;-44
2021/01/16 08:34:08;;;;;;;2.72;1.63;;;19.70;69.30;;;;;;5012048;28;20317;-45
2021/01/16 08:36:38;;;;;;;1.55;1.45;;;19.70;69.30;;;;;;5006928;28;20042;-46
2021/01/16 08:39:28;;;;;;;2.47;2.20;;;19.70;69.20;;;;;;5014475;28;20120;-45
2021/01/16 08:42:05;;;;;;;3.45;1.63;;;19.70;69.40;;;;;;5006902;28;20050;-45
2021/01/16 08:44:55;;;;;;;2.67;1.30;;;19.70;69.40;;;;;;5003138;28;20081;-45
2021/01/16 08:47:26;;;;;;;4.93;1.92;;;19.70;69.40;;;;;;5010722;28;20508;-47
2021/01/16 08:50:14;;;;;;;3.47;1.65;;;19.70;69.40;;;;;;5020820;28;20041;-47
2021/01/16 08:52:46;;;;;;;3.75;2.13;;;19.60;69.30;;;;;;5004092;28;20046;-44
2021/01/16 08:55:18;;;;;;;4.13;1.67;;;19.60;69.30;;;;;;5011776;28;20054;-46
2021/01/16 08:57:49;;;;;;;3.25;1.52;;;19.60;69.60;;;;;;5013343;28;20768;-46
2021/01/16 09:00:29;;;;;;;3.42;1.77;;;19.60;69.40;;;;;;4986409;28;20044;-46
2021/01/16 09:03:17;;;;;;;2.88;1.38;;;19.60;70.00;;;;;;4999684;28;20171;-47
2021/01/16 09:06:00;;;;;;;1.58;1.40;;;19.60;69.40;;;;;;4998915;28;20040;-35
2021/01/16 09:08:32;;;;;;;6.80;2.08;;;19.50;69.20;;;;;;5001690;28;20038;-35
2021/01/16 09:11:14;;;;;;;3.83;1.40;;;19.50;69.30;;;;;;4992594;28;20169;-35
2021/01/16 09:13:45;;;;;;;1.85;1.65;;;19.50;69.50;;;;;;4997479;28;20038;-35
2021/01/16 09:16:32;;;;;;;3.47;1.40;;;19.50;69.50;;;;;;4993848;28;20062;-35
2021/01/16 09:19:06;;;;;;;5.75;1.73;;;19.60;69.60;;;;;;4992373;28;20042;-35
2021/01/16 09:21:36;;;;;;;3.80;1.85;;;19.50;69.40;;;;;;4995543;28;20112;-35
2021/01/16 09:24:22;;;;;;;2.60;1.55;;;19.60;69.60;;;;;;4991110;28;20096;-35
2021/01/16 09:26:52;;;;;;;5.90;1.80;;;19.60;69.50;;;;;;5004165;28;20501;-35
2021/01/16 09:29:27;;;;;;;3.95;1.98;;;19.60;69.40;;;;;;5007717;28;20039;-35
2021/01/16 09:31:59;;;;;;;3.65;1.27;;;19.60;69.50;;;;;;4989237;28;20062;-35
2021/01/16 09:34:39;;;;;;;4.63;1.70;;;19.60;69.50;;;;;;4992029;28;20042;-35
2021/01/16 09:37:29;;;;;;;3.90;1.95;;;19.60;69.50;;;;;;4993159;28;20149;-36
2021/01/16 09:40:13;;;;;;;;;;;19.60;69.50;;;;;;4992996;28;20042;-36
2021/01/16 09:42:48;;;;;;;4.07;1.45;;;19.60;69.40;;;;;;4992966;28;19991;-35
2021/01/16 09:45:20;;;;;;;6.13;1.77;;;19.60;69.20;;;;;;4981127;28;20106;-37
2021/01/16 09:47:53;;;;;;;4.38;1.48;;;19.50;69.30;;;;;;4995322;28;20092;-36
2021/01/16 09:50:28;;;;;;;5.15;1.80;;;19.50;69.40;;;;;;4997081;28;20045;-35
2021/01/16 09:53:06;;;;;;;4.63;2.15;;;19.60;69.70;;;;;;4995923;28;20042;-35
2021/01/16 09:55:40;;;;;;;5.45;1.60;;;19.60;69.60;;;;;;4976804;28;20088;-37
2021/01/16 09:58:28;;;;;;;5.80;1.67;;;19.60;69.70;;;;;;4996606;28;20061;-36
2021/01/16 10:01:23;;;;;;;6.90;2.38;;;19.70;69.80;;;;;;5000821;28;20162;-36
2021/01/16 10:04:03;;;;;;;4.25;1.85;;;19.70;69.60;;;;;;4996410;28;20054;-36
2021/01/16 10:06:34;;;;;;;6.85;1.95;;;19.70;69.60;;;;;;4990368;28;20153;-36
2021/01/16 10:09:23;;;;;;;5.45;1.75;;;19.80;69.50;;;;;;4996559;28;20498;-36
2021/01/16 10:11:53;;;;;;;4.57;1.77;;;19.80;69.80;;;;;;4991123;28;20537;-36
2021/01/16 10:14:36;;;;;;;4.70;1.98;;;19.90;69.70;;;;;;4994915;28;20050;-36
2021/01/16 10:17:14;;;;;;;4.00;1.48;;;20.00;69.80;;;;;;4995356;28;20264;-35
2021/01/16 10:19:44;;;;;;;2.60;1.27;;;20.00;69.70;;;;;;5001390;28;20042;-35
2021/01/16 10:22:16;;;;;;;3.83;1.58;;;20.10;69.80;;;;;;4991930;28;20042;-35
2021/01/16 10:24:46;;;;;;;3.20;1.40;;;20.20;69.70;;;;;;4995510;28;20512;-37
2021/01/16 10:27:46;;;;;;;2.53;1.50;;;20.30;69.70;;;;;;4988414;28;20524;-36
2021/01/16 10:30:30;;;;;;;2.80;1.47;;;20.30;69.60;;;;;;4993722;28;20042;-36
2021/01/16 10:33:17;;;;;;;3.60;1.65;;;20.40;69.60;;;;;;4996211;28;20500;-35
2021/01/16 10:36:14;;;;;;;1.90;0.80;;;20.50;69.80;;;;;;4982165;28;20115;-35
2021/01/16 10:38:53;;;;;;;1.85;1.00;;;20.50;69.40;;;;;;4993818;28;20033;-35
2021/01/16 10:41:35;;;;;;;4.15;1.63;;;20.60;69.30;;;;;;4993318;28;20217;-35
2021/01/16 10:44:08;;;;;;;1.98;1.40;;;20.60;69.30;;;;;;4992504;28;20050;-35
2021/01/16 10:46:42;;;;;;;4.95;1.60;;;20.60;69.20;;;;;;4996307;28;20074;-36
2021/01/16 10:49:22;;;;;;;7.75;2.03;;;20.70;68.60;;;;;;5016324;28;20126;-36
2021/01/16 10:51:59;;;;;;;5.95;1.38;;;20.60;68.40;;;;;;5012555;28;20136;-36
2021/01/16 10:54:32;;;;;;;3.20;1.58;;;20.60;68.10;;;;;;4990481;28;20053;-38
2021/01/16 10:57:06;;;;;;;3.72;1.60;;;20.60;68.00;;;;;;4986948;28;20052;-36
2021/01/16 10:59:38;;;;;;;4.28;1.77;;;20.50;67.80;;;;;;4986566;28;20712;-36
2021/01/16 11:02:14;;;;;;;4.03;1.45;;;20.50;67.80;;;;;;4992258;28;20050;-37
2021/01/16 11:04:48;;;;;;;3.42;1.38;;;20.50;67.70;;;;;;4989408;28;20545;-36
2021/01/16 11:07:30;;;;;;;4.30;1.40;;;20.40;67.40;;;;;;4991671;28;20403;-37
2021/01/16 11:10:06;;;;;;;3.20;1.95;;;20.40;67.50;;;;;;4988350;28;20438;-37
2021/01/16 11:12:38;;;;;;;5.72;2.05;;;20.30;67.10;;;;;;4987973;28;20051;-37
2021/01/16 11:15:21;;;;;;;4.53;2.05;;;20.30;67.10;;;;;;4985038;28;20047;-36
2021/01/16 11:17:59;;;;;;;3.85;1.60;;;20.20;67.10;;;;;;4987029;28;20053;-37
2021/01/16 11:20:35;;;;;;;3.25;1.52;;;20.20;67.00;;;;;;4987348;28;20054;-37
2021/01/16 11:23:29;;;;;;;3.08;1.52;;;20.20;66.80;;;;;;4983298;28;20054;-37
2021/01/16 11:26:07;;;;;;;3.40;1.33;;;20.20;66.80;;;;;;4981879;28;20147;-37
2021/01/16 11:28:50;;;;;;;6.72;1.88;;;20.10;66.80;;;;;;4993147;28;20642;-37
2021/01/16 11:31:31;;;;;;;3.92;1.83;;;20.10;66.60;;;;;;4992769;28;20049;-39
2021/01/16 11:34:22;;;;;;;5.78;2.38;;;20.10;66.70;;;;;;4994272;28;20045;-37
2021/01/16 11:36:57;;;;;;;5.25;2.08;;;20.00;66.70;;;;;;4991256;28;20060;-37
2021/01/16 11:39:42;;;;;;;4.35;1.75;;;20.10;66.60;;;;;;4988402;28;20198;-37
2021/01/16 11:42:13;;;;;;;4.40;1.98;;;20.00;66.40;;;;;;4985017;28;20275;-37
2021/01/16 11:45:02;;;;;;;4.97;1.77;;;20.00;66.60;;;;;;4983829;28;20062;-37
2021/01/16 11:47:34;;;;;;;4.55;1.95;;;20.00;66.50;;;;;;4990584;28;20046;-37
2021/01/16 11:50:06;;;;;;;4.68;1.67;;;19.90;66.30;;;;;;4990770;28;20120;-37
2021/01/16 11:52:37;;;;;;;3.92;1.70;;;19.90;66.30;;;;;;4994352;28;20038;-37
2021/01/16 11:55:10;;;;;;;4.15;1.63;;;19.90;66.40;;;;;;4990735;28;20042;-37
2021/01/16 11:57:44;;;;;;;5.15;1.80;;;19.90;66.30;;;;;;4994860;28;20057;-37
2021/01/16 12:00:17;;;;;;;7.65;1.77;;;19.80;66.30;;;;;;4990392;28;20054;-37
2021/01/16 12:02:55;;;;;;;5.05;1.65;;;19.80;66.30;;;;;;4989696;28;20045;-37
2021/01/16 12:05:26;;;;;;;5.70;1.98;;;19.80;66.30;;;;;;4981180;28;20045;-36
2021/01/16 12:07:58;;;;;;;3.80;1.83;;;19.70;66.30;;;;;;4979406;28;20061;-37
2021/01/16 12:10:30;;;;;;;3.80;1.38;;;19.70;66.20;;;;;;4988844;28;20110;-37
2021/01/16 12:13:01;;;;;;;3.42;1.50;;;19.70;66.90;;;;;;4994636;28;20521;-36
2021/01/16 12:15:32;;;;;;;5.10;2.50;;;19.70;66.30;;;;;;4990599;28;20640;-37
2021/01/16 12:18:03;;;;;;;4.20;1.48;;;19.70;66.30;;;;;;4991352;28;20133;-37
2021/01/16 12:20:34;;;;;;;4.72;1.77;;;19.70;66.30;;;;;;4986799;28;20052;-37
2021/01/16 12:23:04;;;;;;;6.13;1.90;;;19.70;66.40;;;;;;4988636;28;20046;-37
2021/01/16 12:25:35;;;;;;;5.13;1.70;;;19.70;66.30;;;;;;4993767;28;20059;-37
2021/01/16 12:28:19;;;;;;;4.70;1.50;;;19.60;66.30;;;;;;4980443;28;20050;-38
2021/01/16 12:30:51;;;;;;;5.90;1.92;;;19.60;66.20;;;;;;4981303;28;20610;-36
2021/01/16 12:33:28;;;;;;;4.05;1.55;;;19.60;66.20;;;;;;5000349;28;20053;-36
2021/01/16 12:36:09;;;;;;;4.50;1.60;;;19.50;66.30;;;;;;5013838;28;20038;-36
2021/01/16 12:38:40;;;;;;;4.50;1.48;;;19.50;66.10;;;;;;4977198;28;20140;-35
2021/01/16 12:41:21;;;;;;;4.47;2.22;;;19.50;65.90;;;;;;5003962;28;20083;-36
2021/01/16 12:43:53;;;;;;;6.40;2.03;;;19.40;65.90;;;;;;5002944;28;20485;-36
2021/01/16 12:46:27;;;;;;;7.70;2.20;;;19.40;66.70;;;;;;5006657;28;20073;-36
2021/01/16 12:48:59;;;;;;;3.67;1.55;;;19.30;66.30;;;;;;5000411;28;20057;-36
2021/01/16 12:51:31;;;;;;;4.32;1.63;;;19.30;66.40;;;;;;5000576;28;20026;-35
2021/01/16 12:54:04;;;;;;;3.92;1.83;;;19.30;66.40;;;;;;4997699;28;20115;-36
2021/01/16 12:56:36;;;;;;;5.75;2.40;;;19.30;66.70;;;;;;5017029;28;20037;-36
2021/01/16 12:59:12;;;;;;;3.85;1.83;;;19.30;66.80;;;;;;5017019;28;20041;-38
2021/01/16 13:01:51;;;;;;;3.13;1.67;;;19.30;66.70;;;;;;5020602;28;20046;-38
2021/01/16 13:04:22;;;;;;;3.88;1.85;;;19.40;67.20;;;;;;5013788;28;20056;-39
2021/01/16 13:06:53;;;;;;;2.30;1.55;;;19.40;67.30;;;;;;5016430;28;20053;-39
2021/01/16 13:09:23;;;;;;;1.98;1.17;;;19.50;67.50;;;;;;5013678;28;20042;-40
2021/01/16 13:11:53;;;;;;;7.07;1.65;;;19.50;67.50;;;;;;5016904;28;20133;-38
2021/01/16 13:14:23;;;;;;;3.17;1.58;;;19.60;67.50;;;;;;5014050;28;20045;-38
2021/01/16 13:16:54;;;;;;;3.08;1.30;;;19.70;67.60;;;;;;5016243;28;20045;-38
2021/01/16 13:19:26;;;;;;;13.95;2.72;;;19.70;67.50;;;;;;5015131;28;20146;-38
2021/01/16 13:21:57;;;;;;;3.08;1.23;;;19.80;67.60;;;;;;5019487;28;20045;-39
2021/01/16 13:24:27;;;;;;;;;;;19.80;67.60;;;;;;5015182;28;20048;-38
2021/01/16 13:27:00;;;;;;;3.65;1.20;;;19.90;67.60;;;;;;5017929;28;20038;-38
2021/01/16 13:29:36;;;;;;;6.13;1.90;;;20.00;67.70;;;;;;5015061;28;20038;-38